sensor_id;sensor_type;location;lat;lon;timestamp;P1;durP1;ratioP1;P2;durP2;ratioP2
21543;SDS011;10933;50.754;11.508;2024-02-14T00:01:10;10.93;;;10.07;;
21543;SDS011;10933;50.754;11.508;2024-02-14T00:03:36;10.40;;;9.70;;
21543;SDS011;10933;50.754;11.508;2024-02-14T00:06:03;11.77;;;10.87;;
21543;SDS011;10933;50.754;11.508;2024-02-14T00:08:30;11.77;;;10.90;;
21543;SDS011;10933;50.754;11.508;2024-02-14T00:10:57;11.80;;;10.90;;
21543;SDS011;10933;50.754;11.508;2024-02-14T00:13:23;12.50;;;11.43;;
21543;SDS011;10933;50.754;11.508;2024-02-14T00:15:49;11.30;;;10.40;;
21543;SDS011;10933;50.754;11.508;2024-02-14T00:18:16;10.63;;;9.93;;
21543;SDS011;10933;50.754;11.508;2024-02-14T00:20:42;10.73;;;9.83;;
21543;SDS011;10933;50.754;11.508;2024-02-14T00:23:08;10.93;;;10.23;;
21543;SDS011;10933;50.754;11.508;2024-02-14T00:25:36;10.43;;;9.77;;
21543;SDS011;10933;50.754;11.508;2024-02-14T00:28:02;11.23;;;10.23;;
21543;SDS011;10933;50.754;11.508;2024-02-14T00:30:28;10.73;;;9.83;;
21543;SDS011;10933;50.754;11.508;2024-02-14T00:32:55;10.50;;;9.83;;
21543;SDS011;10933;50.754;11.508;2024-02-14T00:35:21;11.73;;;10.83;;
21543;SDS011;10933;50.754;11.508;2024-02-14T00:37:47;10.97;;;10.17;;
21543;SDS011;10933;50.754;11.508;2024-02-14T00:40:13;10.27;;;9.37;;
21543;SDS011;10933;50.754;11.508;2024-02-14T00:42:39;10.77;;;9.87;;
21543;SDS011;10933;50.754;11.508;2024-02-14T00:45:06;9.73;;;8.93;;
21543;SDS011;10933;50.754;11.508;2024-02-14T00:47:33;10.47;;;9.27;;
21543;SDS011;10933;50.754;11.508;2024-02-14T00:50:00;9.90;;;9.20;;
21543;SDS011;10933;50.754;11.508;2024-02-14T00:52:27;10.13;;;9.43;;
21543;SDS011;10933;50.754;11.508;2024-02-14T00:54:54;9.83;;;8.93;;
21543;SDS011;10933;50.754;11.508;2024-02-14T00:57:21;10.33;;;8.60;;
21543;SDS011;10933;50.754;11.508;2024-02-14T00:59:50;9.13;;;8.53;;
21543;SDS011;10933;50.754;11.508;2024-02-14T01:02:17;8.57;;;7.97;;
21543;SDS011;10933;50.754;11.508;2024-02-14T01:04:44;9.37;;;8.37;;
21543;SDS011;10933;50.754;11.508;2024-02-14T01:07:10;8.93;;;8.10;;
21543;SDS011;10933;50.754;11.508;2024-02-14T01:09:36;9.63;;;8.80;;
21543;SDS011;10933;50.754;11.508;2024-02-14T01:12:02;9.47;;;8.87;;
21543;SDS011;10933;50.754;11.508;2024-02-14T01:14:29;13.83;;;12.93;;
21543;SDS011;10933;50.754;11.508;2024-02-14T01:16:56;13.90;;;12.70;;
21543;SDS011;10933;50.754;11.508;2024-02-14T01:19:22;17.07;;;15.33;;
21543;SDS011;10933;50.754;11.508;2024-02-14T01:21:50;11.80;;;10.83;;
21543;SDS011;10933;50.754;11.508;2024-02-14T01:24:16;11.47;;;10.60;;
21543;SDS011;10933;50.754;11.508;2024-02-14T01:26:43;10.17;;;9.37;;
21543;SDS011;10933;50.754;11.508;2024-02-14T01:29:09;9.97;;;8.83;;
21543;SDS011;10933;50.754;11.508;2024-02-14T01:31:35;8.93;;;8.23;;
21543;SDS011;10933;50.754;11.508;2024-02-14T01:34:01;9.07;;;8.37;;
21543;SDS011;10933;50.754;11.508;2024-02-14T01:36:28;8.27;;;7.67;;
21543;SDS011;10933;50.754;11.508;2024-02-14T01:38:54;7.53;;;6.93;;
21543;SDS011;10933;50.754;11.508;2024-02-14T01:41:20;9.00;;;8.30;;
21543;SDS011;10933;50.754;11.508;2024-02-14T01:43:47;9.53;;;8.90;;
21543;SDS011;10933;50.754;11.508;2024-02-14T01:46:14;9.30;;;8.60;;
21543;SDS011;10933;50.754;11.508;2024-02-14T01:48:41;10.13;;;9.37;;
21543;SDS011;10933;50.754;11.508;2024-02-14T01:51:08;10.00;;;9.30;;
21543;SDS011;10933;50.754;11.508;2024-02-14T01:53:36;10.60;;;9.40;;
21543;SDS011;10933;50.754;11.508;2024-02-14T01:56:03;10.00;;;9.30;;
21543;SDS011;10933;50.754;11.508;2024-02-14T01:58:30;10.63;;;9.70;;
21543;SDS011;10933;50.754;11.508;2024-02-14T02:00:58;10.50;;;9.80;;
21543;SDS011;10933;50.754;11.508;2024-02-14T02:03:25;11.20;;;10.30;;
21543;SDS011;10933;50.754;11.508;2024-02-14T02:05:52;10.50;;;9.73;;
21543;SDS011;10933;50.754;11.508;2024-02-14T02:08:19;10.60;;;9.73;;
21543;SDS011;10933;50.754;11.508;2024-02-14T02:10:45;9.60;;;8.80;;
21543;SDS011;10933;50.754;11.508;2024-02-14T02:13:11;9.87;;;9.17;;
21543;SDS011;10933;50.754;11.508;2024-02-14T02:15:40;8.73;;;8.03;;
21543;SDS011;10933;50.754;11.508;2024-02-14T02:18:09;7.23;;;6.80;;
21543;SDS011;10933;50.754;11.508;2024-02-14T02:20:36;7.93;;;7.43;;
21543;SDS011;10933;50.754;11.508;2024-02-14T02:23:03;6.90;;;6.43;;
21543;SDS011;10933;50.754;11.508;2024-02-14T02:25:30;8.07;;;7.33;;
21543;SDS011;10933;50.754;11.508;2024-02-14T02:27:56;9.30;;;8.53;;
21543;SDS011;10933;50.754;11.508;2024-02-14T02:30:22;10.10;;;9.20;;
21543;SDS011;10933;50.754;11.508;2024-02-14T02:32:52;9.80;;;9.10;;
21543;SDS011;10933;50.754;11.508;2024-02-14T02:35:18;10.20;;;9.50;;
21543;SDS011;10933;50.754;11.508;2024-02-14T02:37:49;15.00;;;9.33;;
21543;SDS011;10933;50.754;11.508;2024-02-14T02:40:15;10.47;;;9.60;;
21543;SDS011;10933;50.754;11.508;2024-02-14T02:42:42;12.00;;;10.97;;
21543;SDS011;10933;50.754;11.508;2024-02-14T02:45:10;11.60;;;10.43;;
21543;SDS011;10933;50.754;11.508;2024-02-14T02:47:36;11.00;;;10.20;;
21543;SDS011;10933;50.754;11.508;2024-02-14T02:50:03;11.10;;;10.40;;
21543;SDS011;10933;50.754;11.508;2024-02-14T02:52:29;10.87;;;9.87;;
21543;SDS011;10933;50.754;11.508;2024-02-14T02:54:58;10.80;;;10.13;;
21543;SDS011;10933;50.754;11.508;2024-02-14T02:57:26;10.80;;;10.00;;
21543;SDS011;10933;50.754;11.508;2024-02-14T02:59:57;10.83;;;10.13;;
21543;SDS011;10933;50.754;11.508;2024-02-14T03:02:23;10.73;;;9.70;;
21543;SDS011;10933;50.754;11.508;2024-02-14T03:04:50;8.97;;;8.37;;
21543;SDS011;10933;50.754;11.508;2024-02-14T03:07:18;8.33;;;7.70;;
21543;SDS011;10933;50.754;11.508;2024-02-14T03:09:45;9.97;;;9.20;;
21543;SDS011;10933;50.754;11.508;2024-02-14T03:12:11;9.70;;;8.90;;
21543;SDS011;10933;50.754;11.508;2024-02-14T03:14:41;9.70;;;9.00;;
21543;SDS011;10933;50.754;11.508;2024-02-14T03:17:08;8.20;;;7.63;;
21543;SDS011;10933;50.754;11.508;2024-02-14T03:19:35;7.70;;;7.13;;
21543;SDS011;10933;50.754;11.508;2024-02-14T03:22:03;7.83;;;7.33;;
21543;SDS011;10933;50.754;11.508;2024-02-14T03:24:30;8.33;;;7.73;;
21543;SDS011;10933;50.754;11.508;2024-02-14T03:27:00;11.07;;;10.37;;
21543;SDS011;10933;50.754;11.508;2024-02-14T03:29:26;12.13;;;11.33;;
21543;SDS011;10933;50.754;11.508;2024-02-14T03:31:52;11.20;;;10.40;;
21543;SDS011;10933;50.754;11.508;2024-02-14T03:34:18;6.30;;;5.90;;
21543;SDS011;10933;50.754;11.508;2024-02-14T03:36:46;4.60;;;4.30;;
21543;SDS011;10933;50.754;11.508;2024-02-14T03:39:12;6.13;;;5.63;;
21543;SDS011;10933;50.754;11.508;2024-02-14T03:41:38;10.47;;;9.57;;
21543;SDS011;10933;50.754;11.508;2024-02-14T03:44:04;7.30;;;6.70;;
21543;SDS011;10933;50.754;11.508;2024-02-14T03:46:33;7.93;;;7.43;;
21543;SDS011;10933;50.754;11.508;2024-02-14T03:49:00;7.23;;;6.63;;
21543;SDS011;10933;50.754;11.508;2024-02-14T03:51:26;10.33;;;6.33;;
21543;SDS011;10933;50.754;11.508;2024-02-14T03:53:52;6.63;;;6.23;;
21543;SDS011;10933;50.754;11.508;2024-02-14T03:56:18;6.33;;;5.93;;
21543;SDS011;10933;50.754;11.508;2024-02-14T03:58:44;6.70;;;6.13;;
21543;SDS011;10933;50.754;11.508;2024-02-14T04:01:11;6.43;;;5.93;;
21543;SDS011;10933;50.754;11.508;2024-02-14T04:03:37;6.70;;;6.17;;
21543;SDS011;10933;50.754;11.508;2024-02-14T04:06:04;6.07;;;5.67;;
21543;SDS011;10933;50.754;11.508;2024-02-14T04:08:30;5.43;;;5.07;;
21543;SDS011;10933;50.754;11.508;2024-02-14T04:10:56;5.33;;;4.93;;
21543;SDS011;10933;50.754;11.508;2024-02-14T04:13:22;6.23;;;5.80;;
21543;SDS011;10933;50.754;11.508;2024-02-14T04:15:48;5.07;;;4.77;;
21543;SDS011;10933;50.754;11.508;2024-02-14T04:18:14;4.67;;;4.00;;
21543;SDS011;10933;50.754;11.508;2024-02-14T04:20:43;4.47;;;4.17;;
21543;SDS011;10933;50.754;11.508;2024-02-14T04:23:11;4.83;;;4.37;;
21543;SDS011;10933;50.754;11.508;2024-02-14T04:25:37;8.87;;;8.17;;
21543;SDS011;10933;50.754;11.508;2024-02-14T04:28:03;15.40;;;13.83;;
21543;SDS011;10933;50.754;11.508;2024-02-14T04:30:30;5.47;;;4.67;;
21543;SDS011;10933;50.754;11.508;2024-02-14T04:32:56;15.70;;;14.40;;
21543;SDS011;10933;50.754;11.508;2024-02-14T04:35:22;16.33;;;15.33;;
21543;SDS011;10933;50.754;11.508;2024-02-14T04:37:48;21.80;;;19.73;;
21543;SDS011;10933;50.754;11.508;2024-02-14T04:40:15;20.87;;;18.97;;
21543;SDS011;10933;50.754;11.508;2024-02-14T04:42:41;11.23;;;10.47;;
21543;SDS011;10933;50.754;11.508;2024-02-14T04:45:07;12.50;;;11.50;;
21543;SDS011;10933;50.754;11.508;2024-02-14T04:47:33;12.63;;;11.73;;
21543;SDS011;10933;50.754;11.508;2024-02-14T04:50:00;12.30;;;11.40;;
21543;SDS011;10933;50.754;11.508;2024-02-14T04:52:28;10.17;;;9.50;;
21543;SDS011;10933;50.754;11.508;2024-02-14T04:54:55;5.67;;;5.30;;
21543;SDS011;10933;50.754;11.508;2024-02-14T04:57:21;5.03;;;4.63;;
21543;SDS011;10933;50.754;11.508;2024-02-14T04:59:48;6.10;;;5.70;;
21543;SDS011;10933;50.754;11.508;2024-02-14T05:02:14;6.43;;;5.97;;
21543;SDS011;10933;50.754;11.508;2024-02-14T05:04:40;7.03;;;6.43;;
21543;SDS011;10933;50.754;11.508;2024-02-14T05:07:06;6.73;;;6.23;;
21543;SDS011;10933;50.754;11.508;2024-02-14T05:09:33;7.20;;;6.70;;
21543;SDS011;10933;50.754;11.508;2024-02-14T05:11:59;7.47;;;6.97;;
21543;SDS011;10933;50.754;11.508;2024-02-14T05:14:25;7.20;;;6.67;;
21543;SDS011;10933;50.754;11.508;2024-02-14T05:16:55;7.30;;;6.63;;
21543;SDS011;10933;50.754;11.508;2024-02-14T05:19:21;6.47;;;6.10;;
21543;SDS011;10933;50.754;11.508;2024-02-14T05:21:47;7.67;;;7.17;;
21543;SDS011;10933;50.754;11.508;2024-02-14T05:24:13;8.57;;;6.57;;
21543;SDS011;10933;50.754;11.508;2024-02-14T05:26:40;6.63;;;6.03;;
21543;SDS011;10933;50.754;11.508;2024-02-14T05:29:07;6.07;;;5.67;;
21543;SDS011;10933;50.754;11.508;2024-02-14T05:31:43;7.03;;;6.53;;
21543;SDS011;10933;50.754;11.508;2024-02-14T05:34:10;6.90;;;6.50;;
21543;SDS011;10933;50.754;11.508;2024-02-14T05:36:36;6.37;;;5.97;;
21543;SDS011;10933;50.754;11.508;2024-02-14T05:39:03;6.00;;;5.60;;
21543;SDS011;10933;50.754;11.508;2024-02-14T05:41:31;4.80;;;4.43;;
21543;SDS011;10933;50.754;11.508;2024-02-14T05:43:58;4.90;;;4.60;;
21543;SDS011;10933;50.754;11.508;2024-02-14T05:46:24;6.00;;;5.53;;
21543;SDS011;10933;50.754;11.508;2024-02-14T05:48:50;4.93;;;4.63;;
21543;SDS011;10933;50.754;11.508;2024-02-14T05:51:19;4.10;;;3.80;;
21543;SDS011;10933;50.754;11.508;2024-02-14T05:53:45;4.17;;;3.77;;
21543;SDS011;10933;50.754;11.508;2024-02-14T05:56:11;4.73;;;4.43;;
21543;SDS011;10933;50.754;11.508;2024-02-14T05:58:38;5.27;;;4.90;;
21543;SDS011;10933;50.754;11.508;2024-02-14T06:01:04;7.20;;;6.70;;
21543;SDS011;10933;50.754;11.508;2024-02-14T06:03:31;7.17;;;6.67;;
21543;SDS011;10933;50.754;11.508;2024-02-14T06:05:57;6.63;;;6.23;;
21543;SDS011;10933;50.754;11.508;2024-02-14T06:08:23;5.70;;;5.30;;
21543;SDS011;10933;50.754;11.508;2024-02-14T06:10:49;4.90;;;4.60;;
21543;SDS011;10933;50.754;11.508;2024-02-14T06:13:15;5.20;;;4.90;;
21543;SDS011;10933;50.754;11.508;2024-02-14T06:15:41;6.43;;;6.03;;
21543;SDS011;10933;50.754;11.508;2024-02-14T06:18:08;6.17;;;5.67;;
21543;SDS011;10933;50.754;11.508;2024-02-14T06:20:34;6.43;;;5.93;;
21543;SDS011;10933;50.754;11.508;2024-02-14T06:23:01;5.77;;;5.37;;
21543;SDS011;10933;50.754;11.508;2024-02-14T06:25:27;6.73;;;4.90;;
21543;SDS011;10933;50.754;11.508;2024-02-14T06:27:53;5.10;;;4.70;;
21543;SDS011;10933;50.754;11.508;2024-02-14T06:30:19;5.60;;;5.30;;
21543;SDS011;10933;50.754;11.508;2024-02-14T06:32:45;4.43;;;4.13;;
21543;SDS011;10933;50.754;11.508;2024-02-14T06:35:11;5.87;;;5.47;;
21543;SDS011;10933;50.754;11.508;2024-02-14T06:37:39;5.43;;;5.03;;
21543;SDS011;10933;50.754;11.508;2024-02-14T06:40:06;8.93;;;5.20;;
21543;SDS011;10933;50.754;11.508;2024-02-14T06:42:33;5.03;;;4.73;;
21543;SDS011;10933;50.754;11.508;2024-02-14T06:44:59;8.20;;;5.50;;
21543;SDS011;10933;50.754;11.508;2024-02-14T06:47:25;5.13;;;4.83;;
21543;SDS011;10933;50.754;11.508;2024-02-14T06:49:55;5.77;;;5.37;;
21543;SDS011;10933;50.754;11.508;2024-02-14T06:52:21;8.40;;;7.80;;
21543;SDS011;10933;50.754;11.508;2024-02-14T06:54:47;7.50;;;6.87;;
21543;SDS011;10933;50.754;11.508;2024-02-14T06:57:13;8.40;;;7.70;;
21543;SDS011;10933;50.754;11.508;2024-02-14T06:59:39;9.73;;;8.70;;
21543;SDS011;10933;50.754;11.508;2024-02-14T07:02:06;7.23;;;6.73;;
21543;SDS011;10933;50.754;11.508;2024-02-14T07:04:32;8.23;;;7.60;;
21543;SDS011;10933;50.754;11.508;2024-02-14T07:06:58;6.90;;;6.50;;
21543;SDS011;10933;50.754;11.508;2024-02-14T07:09:25;7.87;;;7.10;;
21543;SDS011;10933;50.754;11.508;2024-02-14T07:11:51;4.73;;;4.33;;
21543;SDS011;10933;50.754;11.508;2024-02-14T07:14:23;4.80;;;4.43;;
21543;SDS011;10933;50.754;11.508;2024-02-14T07:16:49;4.53;;;4.10;;
21543;SDS011;10933;50.754;11.508;2024-02-14T07:19:16;4.70;;;4.30;;
21543;SDS011;10933;50.754;11.508;2024-02-14T07:21:42;4.50;;;3.33;;
21543;SDS011;10933;50.754;11.508;2024-02-14T07:24:08;4.87;;;4.47;;
21543;SDS011;10933;50.754;11.508;2024-02-14T07:26:35;7.70;;;7.10;;
21543;SDS011;10933;50.754;11.508;2024-02-14T07:29:01;10.00;;;8.67;;
21543;SDS011;10933;50.754;11.508;2024-02-14T07:31:29;10.43;;;9.27;;
21543;SDS011;10933;50.754;11.508;2024-02-14T07:33:59;7.87;;;7.17;;
21543;SDS011;10933;50.754;11.508;2024-02-14T07:36:27;17.53;;;12.83;;
21543;SDS011;10933;50.754;11.508;2024-02-14T07:38:54;16.87;;;11.80;;
21543;SDS011;10933;50.754;11.508;2024-02-14T07:41:20;6.23;;;5.57;;
21543;SDS011;10933;50.754;11.508;2024-02-14T07:43:46;5.17;;;4.77;;
21543;SDS011;10933;50.754;11.508;2024-02-14T07:46:17;8.20;;;7.30;;
21543;SDS011;10933;50.754;11.508;2024-02-14T07:48:44;15.67;;;10.07;;
21543;SDS011;10933;50.754;11.508;2024-02-14T07:51:10;13.77;;;12.20;;
21543;SDS011;10933;50.754;11.508;2024-02-14T07:53:37;12.33;;;11.17;;
21543;SDS011;10933;50.754;11.508;2024-02-14T07:56:03;11.07;;;10.27;;
21543;SDS011;10933;50.754;11.508;2024-02-14T07:58:30;6.97;;;6.47;;
21543;SDS011;10933;50.754;11.508;2024-02-14T08:00:56;3.30;;;2.93;;
21543;SDS011;10933;50.754;11.508;2024-02-14T08:03:22;4.47;;;4.07;;
21543;SDS011;10933;50.754;11.508;2024-02-14T08:05:49;3.70;;;3.40;;
21543;SDS011;10933;50.754;11.508;2024-02-14T08:08:16;3.77;;;3.47;;
21543;SDS011;10933;50.754;11.508;2024-02-14T08:10:42;3.60;;;3.30;;
21543;SDS011;10933;50.754;11.508;2024-02-14T08:13:08;2.83;;;2.63;;
21543;SDS011;10933;50.754;11.508;2024-02-14T08:15:36;9.20;;;8.40;;
21543;SDS011;10933;50.754;11.508;2024-02-14T08:18:02;4.33;;;4.03;;
21543;SDS011;10933;50.754;11.508;2024-02-14T08:20:28;2.60;;;2.40;;
21543;SDS011;10933;50.754;11.508;2024-02-14T08:22:54;2.80;;;2.60;;
21543;SDS011;10933;50.754;11.508;2024-02-14T08:25:20;2.73;;;2.30;;
21543;SDS011;10933;50.754;11.508;2024-02-14T08:27:46;3.90;;;3.60;;
21543;SDS011;10933;50.754;11.508;2024-02-14T08:30:12;5.00;;;4.60;;
21543;SDS011;10933;50.754;11.508;2024-02-14T08:32:39;3.33;;;2.97;;
21543;SDS011;10933;50.754;11.508;2024-02-14T08:35:05;5.30;;;3.93;;
21543;SDS011;10933;50.754;11.508;2024-02-14T08:37:32;2.13;;;1.93;;
21543;SDS011;10933;50.754;11.508;2024-02-14T08:40:01;4.37;;;3.97;;
21543;SDS011;10933;50.754;11.508;2024-02-14T08:42:30;8.33;;;7.73;;
21543;SDS011;10933;50.754;11.508;2024-02-14T08:44:58;3.30;;;3.10;;
21543;SDS011;10933;50.754;11.508;2024-02-14T08:47:24;11.80;;;11.00;;
21543;SDS011;10933;50.754;11.508;2024-02-14T08:49:51;4.10;;;3.87;;
21543;SDS011;10933;50.754;11.508;2024-02-14T08:52:17;2.27;;;2.07;;
21543;SDS011;10933;50.754;11.508;2024-02-14T08:54:43;3.87;;;3.07;;
21543;SDS011;10933;50.754;11.508;2024-02-14T08:57:09;10.73;;;7.13;;
21543;SDS011;10933;50.754;11.508;2024-02-14T08:59:35;2.33;;;2.13;;
21543;SDS011;10933;50.754;11.508;2024-02-14T09:02:02;10.93;;;10.13;;
21543;SDS011;10933;50.754;11.508;2024-02-14T09:04:28;7.77;;;7.07;;
21543;SDS011;10933;50.754;11.508;2024-02-14T09:06:54;3.83;;;3.53;;
21543;SDS011;10933;50.754;11.508;2024-02-14T09:09:21;2.87;;;2.57;;
21543;SDS011;10933;50.754;11.508;2024-02-14T09:11:47;7.20;;;6.50;;
21543;SDS011;10933;50.754;11.508;2024-02-14T09:14:13;4.70;;;4.30;;
21543;SDS011;10933;50.754;11.508;2024-02-14T09:16:39;2.93;;;2.73;;
21543;SDS011;10933;50.754;11.508;2024-02-14T09:19:05;2.33;;;2.23;;
21543;SDS011;10933;50.754;11.508;2024-02-14T09:21:33;2.07;;;1.90;;
21543;SDS011;10933;50.754;11.508;2024-02-14T09:24:01;5.73;;;4.57;;
21543;SDS011;10933;50.754;11.508;2024-02-14T09:26:28;3.53;;;3.33;;
21543;SDS011;10933;50.754;11.508;2024-02-14T09:28:54;3.30;;;3.10;;
21543;SDS011;10933;50.754;11.508;2024-02-14T09:31:21;3.10;;;2.90;;
21543;SDS011;10933;50.754;11.508;2024-02-14T09:33:47;3.93;;;3.73;;
21543;SDS011;10933;50.754;11.508;2024-02-14T09:36:14;5.17;;;4.83;;
21543;SDS011;10933;50.754;11.508;2024-02-14T09:38:41;3.43;;;3.23;;
21543;SDS011;10933;50.754;11.508;2024-02-14T09:44:02;4.67;;;4.37;;
21543;SDS011;10933;50.754;11.508;2024-02-14T09:46:29;3.63;;;3.43;;
21543;SDS011;10933;50.754;11.508;2024-02-14T09:48:55;2.42;;;1.60;;
21543;SDS011;10933;50.754;11.508;2024-02-14T09:51:24;3.70;;;3.50;;
21543;SDS011;10933;50.754;11.508;2024-02-14T09:53:50;2.38;;;2.17;;
21543;SDS011;10933;50.754;11.508;2024-02-14T09:56:19;2.60;;;2.40;;
21543;SDS011;10933;50.754;11.508;2024-02-14T09:58:47;5.18;;;4.78;;
21543;SDS011;10933;50.754;11.508;2024-02-14T10:01:20;3.20;;;3.00;;
21543;SDS011;10933;50.754;11.508;2024-02-14T10:03:50;2.80;;;2.60;;
21543;SDS011;10933;50.754;11.508;2024-02-14T10:06:17;1.50;;;1.40;;
21543;SDS011;10933;50.754;11.508;2024-02-14T10:08:47;1.73;;;1.63;;
21543;SDS011;10933;50.754;11.508;2024-02-14T10:11:13;4.93;;;2.17;;
21543;SDS011;10933;50.754;11.508;2024-02-14T10:13:40;2.10;;;1.90;;
21543;SDS011;10933;50.754;11.508;2024-02-14T10:16:10;4.03;;;1.50;;
21543;SDS011;10933;50.754;11.508;2024-02-14T10:18:37;4.47;;;2.33;;
21543;SDS011;10933;50.754;11.508;2024-02-14T10:21:04;1.60;;;1.50;;
21543;SDS011;10933;50.754;11.508;2024-02-14T10:23:30;2.50;;;2.00;;
21543;SDS011;10933;50.754;11.508;2024-02-14T10:25:57;3.75;;;3.20;;
21543;SDS011;10933;50.754;11.508;2024-02-14T10:28:24;14.82;;;13.82;;
21543;SDS011;10933;50.754;11.508;2024-02-14T10:30:50;3.83;;;3.53;;
21543;SDS011;10933;50.754;11.508;2024-02-14T10:33:19;5.40;;;4.90;;
21543;SDS011;10933;50.754;11.508;2024-02-14T10:35:45;6.47;;;5.90;;
21543;SDS011;10933;50.754;11.508;2024-02-14T10:38:14;2.00;;;1.70;;
21543;SDS011;10933;50.754;11.508;2024-02-14T10:40:43;2.50;;;2.25;;
21543;SDS011;10933;50.754;11.508;2024-02-14T10:43:11;6.63;;;6.13;;
21543;SDS011;10933;50.754;11.508;2024-02-14T10:45:39;3.55;;;3.35;;
21543;SDS011;10933;50.754;11.508;2024-02-14T10:48:05;3.67;;;3.47;;
21543;SDS011;10933;50.754;11.508;2024-02-14T10:50:36;3.90;;;3.70;;
21543;SDS011;10933;50.754;11.508;2024-02-14T10:53:06;3.42;;;3.13;;
21543;SDS011;10933;50.754;11.508;2024-02-14T10:55:40;6.03;;;1.90;;
21543;SDS011;10933;50.754;11.508;2024-02-14T10:58:09;9.80;;;9.20;;
21543;SDS011;10933;50.754;11.508;2024-02-14T11:00:36;2.00;;;1.90;;
21543;SDS011;10933;50.754;11.508;2024-02-14T11:03:03;1.48;;;1.38;;
21543;SDS011;10933;50.754;11.508;2024-02-14T11:05:30;3.28;;;3.00;;
21543;SDS011;10933;50.754;11.508;2024-02-14T11:08:07;3.92;;;3.72;;
21543;SDS011;10933;50.754;11.508;2024-02-14T11:10:37;2.90;;;2.70;;
21543;SDS011;10933;50.754;11.508;2024-02-14T11:13:03;2.20;;;2.00;;
21543;SDS011;10933;50.754;11.508;2024-02-14T11:15:35;2.40;;;2.20;;
21543;SDS011;10933;50.754;11.508;2024-02-14T11:18:04;1.80;;;1.60;;
21543;SDS011;10933;50.754;11.508;2024-02-14T11:20:33;1.90;;;1.75;;
21543;SDS011;10933;50.754;11.508;2024-02-14T11:23:04;4.80;;;4.50;;
21543;SDS011;10933;50.754;11.508;2024-02-14T11:25:32;2.47;;;2.28;;
21543;SDS011;10933;50.754;11.508;2024-02-14T11:27:59;4.30;;;4.10;;
21543;SDS011;10933;50.754;11.508;2024-02-14T11:30:39;14.37;;;13.03;;
21543;SDS011;10933;50.754;11.508;2024-02-14T11:33:19;3.93;;;3.63;;
21543;SDS011;10933;50.754;11.508;2024-02-14T11:35:48;9.00;;;8.60;;
21543;SDS011;10933;50.754;11.508;2024-02-14T11:38:18;3.45;;;3.25;;
21543;SDS011;10933;50.754;11.508;2024-02-14T11:40:45;2.17;;;2.08;;
21543;SDS011;10933;50.754;11.508;2024-02-14T11:43:12;7.47;;;7.07;;
21543;SDS011;10933;50.754;11.508;2024-02-14T11:45:41;7.13;;;6.72;;
21543;SDS011;10933;50.754;11.508;2024-02-14T11:48:11;3.70;;;3.50;;
21543;SDS011;10933;50.754;11.508;2024-02-14T11:50:39;11.95;;;11.27;;
21543;SDS011;10933;50.754;11.508;2024-02-14T11:53:10;5.70;;;5.30;;
21543;SDS011;10933;50.754;11.508;2024-02-14T11:55:39;3.38;;;3.08;;
21543;SDS011;10933;50.754;11.508;2024-02-14T11:58:16;2.60;;;2.40;;
21543;SDS011;10933;50.754;11.508;2024-02-14T12:00:45;2.85;;;2.65;;
21543;SDS011;10933;50.754;11.508;2024-02-14T12:03:16;2.20;;;2.00;;
21543;SDS011;10933;50.754;11.508;2024-02-14T12:05:44;3.10;;;2.90;;
21543;SDS011;10933;50.754;11.508;2024-02-14T12:08:12;1.95;;;1.80;;
21543;SDS011;10933;50.754;11.508;2024-02-14T12:10:42;3.45;;;2.63;;
21543;SDS011;10933;50.754;11.508;2024-02-14T12:13:14;5.78;;;5.38;;
21543;SDS011;10933;50.754;11.508;2024-02-14T12:15:43;5.25;;;4.95;;
21543;SDS011;10933;50.754;11.508;2024-02-14T12:18:11;5.88;;;5.47;;
21543;SDS011;10933;50.754;11.508;2024-02-14T12:20:37;9.65;;;7.60;;
21543;SDS011;10933;50.754;11.508;2024-02-14T12:23:04;6.27;;;5.87;;
21543;SDS011;10933;50.754;11.508;2024-02-14T12:25:30;5.07;;;4.67;;
21543;SDS011;10933;50.754;11.508;2024-02-14T12:27:57;3.23;;;1.77;;
21543;SDS011;10933;50.754;11.508;2024-02-14T12:30:43;4.13;;;3.80;;
21543;SDS011;10933;50.754;11.508;2024-02-14T12:33:22;4.18;;;3.75;;
21543;SDS011;10933;50.754;11.508;2024-02-14T12:35:49;3.20;;;3.00;;
21543;SDS011;10933;50.754;11.508;2024-02-14T12:38:17;3.25;;;3.05;;
21543;SDS011;10933;50.754;11.508;2024-02-14T12:40:44;4.10;;;3.80;;
21543;SDS011;10933;50.754;11.508;2024-02-14T12:43:11;3.53;;;2.47;;
21543;SDS011;10933;50.754;11.508;2024-02-14T12:45:39;2.23;;;2.13;;
21543;SDS011;10933;50.754;11.508;2024-02-14T12:48:10;3.22;;;3.03;;
21543;SDS011;10933;50.754;11.508;2024-02-14T12:50:38;3.35;;;3.15;;
21543;SDS011;10933;50.754;11.508;2024-02-14T12:53:09;3.88;;;2.95;;
21543;SDS011;10933;50.754;11.508;2024-02-14T12:55:36;2.83;;;2.30;;
21543;SDS011;10933;50.754;11.508;2024-02-14T12:58:02;2.60;;;2.40;;
21543;SDS011;10933;50.754;11.508;2024-02-14T13:00:28;2.45;;;2.35;;
21543;SDS011;10933;50.754;11.508;2024-02-14T13:02:57;3.22;;;3.03;;
21543;SDS011;10933;50.754;11.508;2024-02-14T13:05:24;2.45;;;2.35;;
21543;SDS011;10933;50.754;11.508;2024-02-14T13:07:50;1.55;;;1.45;;
21543;SDS011;10933;50.754;11.508;2024-02-14T13:10:17;1.70;;;1.40;;
21543;SDS011;10933;50.754;11.508;2024-02-14T13:12:43;1.77;;;1.67;;
21543;SDS011;10933;50.754;11.508;2024-02-14T13:15:10;3.10;;;2.90;;
21543;SDS011;10933;50.754;11.508;2024-02-14T13:17:37;2.75;;;2.60;;
21543;SDS011;10933;50.754;11.508;2024-02-14T13:20:03;1.00;;;1.00;;
21543;SDS011;10933;50.754;11.508;2024-02-14T13:22:30;1.60;;;1.48;;
21543;SDS011;10933;50.754;11.508;2024-02-14T13:24:57;1.35;;;1.25;;
21543;SDS011;10933;50.754;11.508;2024-02-14T13:27:25;1.35;;;1.25;;
21543;SDS011;10933;50.754;11.508;2024-02-14T13:29:51;1.48;;;1.38;;
21543;SDS011;10933;50.754;11.508;2024-02-14T13:32:17;1.95;;;1.80;;
21543;SDS011;10933;50.754;11.508;2024-02-14T13:34:43;1.70;;;1.60;;
21543;SDS011;10933;50.754;11.508;2024-02-14T13:37:10;4.40;;;1.58;;
21543;SDS011;10933;50.754;11.508;2024-02-14T13:39:36;2.20;;;2.00;;
21543;SDS011;10933;50.754;11.508;2024-02-14T13:42:02;3.25;;;1.98;;
21543;SDS011;10933;50.754;11.508;2024-02-14T13:44:28;4.72;;;2.00;;
21543;SDS011;10933;50.754;11.508;2024-02-14T13:46:54;1.90;;;1.73;;
21543;SDS011;10933;50.754;11.508;2024-02-14T13:49:21;2.35;;;2.20;;
21543;SDS011;10933;50.754;11.508;2024-02-14T13:51:50;1.35;;;1.23;;
21543;SDS011;10933;50.754;11.508;2024-02-14T13:54:18;1.58;;;1.48;;
21543;SDS011;10933;50.754;11.508;2024-02-14T13:56:49;1.80;;;1.70;;
21543;SDS011;10933;50.754;11.508;2024-02-14T13:59:15;2.00;;;1.80;;
21543;SDS011;10933;50.754;11.508;2024-02-14T14:01:42;2.90;;;2.70;;
21543;SDS011;10933;50.754;11.508;2024-02-14T14:04:08;2.80;;;2.55;;
21543;SDS011;10933;50.754;11.508;2024-02-14T14:06:34;2.72;;;2.53;;
21543;SDS011;10933;50.754;11.508;2024-02-14T14:09:00;2.75;;;2.55;;
21543;SDS011;10933;50.754;11.508;2024-02-14T14:11:28;1.95;;;1.85;;
21543;SDS011;10933;50.754;11.508;2024-02-14T14:13:54;2.35;;;2.15;;
21543;SDS011;10933;50.754;11.508;2024-02-14T14:16:20;4.22;;;2.00;;
21543;SDS011;10933;50.754;11.508;2024-02-14T14:18:46;1.98;;;1.88;;
21543;SDS011;10933;50.754;11.508;2024-02-14T14:21:15;2.00;;;1.90;;
21543;SDS011;10933;50.754;11.508;2024-02-14T14:23:42;2.10;;;1.95;;
21543;SDS011;10933;50.754;11.508;2024-02-14T14:26:08;1.80;;;1.70;;
21543;SDS011;10933;50.754;11.508;2024-02-14T14:28:35;2.03;;;1.92;;
21543;SDS011;10933;50.754;11.508;2024-02-14T14:31:01;2.38;;;2.17;;
21543;SDS011;10933;50.754;11.508;2024-02-14T14:33:28;2.10;;;2.00;;